Ulen, Minnesota
Current Conditions -  °F | °C
As of 8:35 AM on Tuesday 21 Oct 2014 (Local Time) from K3N8 Reporting Station
Clear Clear  
Wind Chill: 35°   Ceiling: Unl
Heat Index: 41°   Visibility: 10mi
Dew Point: 37°   Wind: 10mph
Humidity: 85%   Direction: 140°SE
Pressure: 30.07"   Gusts: NA
Location:  47.08°N, 96.26°W
Report Text: K3N8 211335Z AUTO 14009KT 10SM CLR 05/03 A3007 RMK AO2 T00510028
Loading
Personal Weather Stations






























Interactive Weather Map
Tropical Storm Tracking
New forecast layout! Learn more

10-Day Weather Forecast

Advertisements
Track Severe Weather on mobile